2017 NOAA NGS Topobathy Lidar: Fort Lauderdale to Miami (FL) Point Cloud files with Orthometric Vertical Datum North American Vertical Datum of 1988 (NAVD88) using GEOID18

Below are links to the files that make up the 2017 NOAA NGS Topobathy Lidar: Fort Lauderdale to Miami (FL) dataset in an orthometric vertical datum North American Vertical Datum of 1988 (NAVD88) using GEOID18. This HTML file is here to emulate the access you would have gotten through an ftp site. The files containing geospatial indices, metadata, etc., are listed first, followed by the files. To download in bulk, it is suggested you use a program such as wget (example below). The geospatial index file in shapefile format also has a URL attribute that some GIS programs can use to download files. You can also subset the data, make derived products, and change projection, datum, etc., using the Digital Coast Data Access Viewer (add to cart, the link to bulk download or LAZ fmt will take you here).

The files are in LAZ format, a lossless compressed version of the ASPRS LAS format. The compression and decompression is done with the free and open source 'laszip' program available at http://laszip.org. This is not the same as the more general zip format. Many geospatial programs will read LAZ files natively and decompression is often not necessary. There is a list of software with native support on the laszip site.

Example to download entire data set using wget (note: sufficiently new and trusted pre-compiled Windows versions can be hard to find):
wget -np -r -nH -L --cut-dirs=2 https://chs.coast.noaa.gov/htdata/lidar4_z/geoid18/data/8713/
This will give you the directory structure starting with geoid18. Modify the --cut-dirs=2 argument to modify the start directory (e.g. --cut-dirs=4 will start at 8713). Wget is a command-line program and the output will be to the directory you run it in. More options and information can be found at http://www.gnu.org/software/wget/manual/wget.html. The other options in the example mean:


If you have problems with wget that look like an authorization or certificate issue, you may need to add the option "--no-check-certificate". Windows users may want to install the Windows Subsystem for Linux to get a current wget.

You can also use the uGet program with the list of URLs in file urllist8713.txt. Several posts on the GeoZone blog provide help with downloading, including:

The total size to download all the files is 31G. There are 1064 LAZ files and the summary class table is:
Class NumberClass NamePoints
1Unclassified3628590227
2Ground374330964
7Low Point (noise)859746839
25Water column1973447145
26Bathymetric point230195825
29Submerged Object76829
31Temporal bathy bottom7391437

If you need FTP access instead of HTTPS, use ftp://ftp.coast.noaa.gov/pub/DigitalCoast/lidar4_z/geoid18/data/8713

Georeferencing Note

You may find the georeferencing on the files refers to generic NAD83 (EPSG code 4269). All files, with the exception of the few in WGS84, are in a more recent realization of NAD83 such as NAD83(CORS96), NAD83(HARN), NAD83(NSRS2007), or NAD83(2011).

Meta Info

Tile Index: tileindex.zip (Shapefile)
                2017_ngs_miami_index.gpkg (GeoPackage)
Metadata: 2017_ngs_miami_metadata.xml
Metadata: 2017_ngs_miami_metadata.html
XYZ range table: 2017_ngs_miami_minmax.csv
README: 0README.txt (contains similar information to above)
URL List: urllist8713.txt is a list of all the URLs for batch downloading.

Supplemental Info

supplemental/fl2017_miami_topobathy_m8713.kmz
supplemental/index.html

Point Clouds

20170310_2017_587500e_2890000n_las.laz
20170310_2017_586500e_2886000n_las.laz
20170310_2017_586000e_2879000n_las.laz
20170310_2017_587000e_2883500n_las.laz
20170309_2017_590000e_2888500n_las.laz
20170310_2017_586000e_2889000n_las.laz
20170310_2017_585500e_2882000n_las.laz
20170310_2017_585000e_2879000n_las.laz
20170310_2017_587500e_2889500n_las.laz
20170310_2017_585000e_2878500n_las.laz
20170309_2017_590000e_2888000n_las.laz
20170310_2017_585000e_2878000n_las.laz
20170309_2017_590000e_2887500n_las.laz
20170309_2017_590000e_2887000n_las.laz
20170310_2017_585000e_2877500n_las.laz
20170309_2017_590000e_2886500n_las.laz
20170310_2017_587500e_2889000n_las.laz
20170310_2017_585000e_2877000n_las.laz
20170309_2017_590000e_2886000n_las.laz
20170310_2017_586500e_2885500n_las.laz
20170309_2017_590000e_2885500n_las.laz
20170309_2017_590000e_2885000n_las.laz
20170310_2017_585500e_2881500n_las.laz
20170309_2017_590000e_2884500n_las.laz
20170310_2017_585000e_2876500n_las.laz
20170309_2017_590000e_2884000n_las.laz
20170309_2017_590000e_2883500n_las.laz
20170309_2017_590000e_2883000n_las.laz
20170309_2017_590000e_2882500n_las.laz
20170309_2017_590000e_2882000n_las.laz
20170309_2017_590000e_2881500n_las.laz
20170310_2017_586000e_2878500n_las.laz
20170309_2017_590000e_2881000n_las.laz
20170309_2017_589500e_2890000n_las.laz
20170309_2017_589500e_2889500n_las.laz
20170310_2017_585000e_2876000n_las.laz
20170310_2017_586000e_2888500n_las.laz
20170310_2017_587500e_2888500n_las.laz
20170310_2017_585000e_2875500n_las.laz
20170310_2017_587000e_2883000n_las.laz
20170310_2017_583000e_2851500n_las.laz
20170309_2017_589500e_2889000n_las.laz
20170310_2017_585500e_2881000n_las.laz
20170310_2017_586500e_2885000n_las.laz
20170310_2017_586000e_2878000n_las.laz
20170310_2017_587500e_2888000n_las.laz
20170309_2017_589500e_2888500n_las.laz
20170310_2017_583000e_2851000n_las.laz
20170310_2017_586000e_2888000n_las.laz
20170310_2017_585500e_2880500n_las.laz
20170310_2017_587000e_2882500n_las.laz
20170310_2017_586500e_2884500n_las.laz
20170310_2017_587500e_2887500n_las.laz
20170310_2017_586000e_2877500n_las.laz
20170310_2017_583000e_2850500n_las.laz
20170309_2017_589500e_2888000n_las.laz
20170310_2017_585500e_2880000n_las.laz
20170310_2017_586000e_2887500n_las.laz
20170310_2017_587500e_2887000n_las.laz
20170310_2017_586500e_2884000n_las.laz
20170309_2017_589500e_2887500n_las.laz
20170310_2017_585500e_2890000n_las.laz
20170310_2017_585500e_2889500n_las.laz
20170310_2017_585500e_2879500n_las.laz
20170310_2017_585500e_2889000n_las.laz
20170310_2017_587000e_2882000n_las.laz
20170310_2017_587000e_2890000n_las.laz
20170310_2017_583000e_2850000n_las.laz
20170310_2017_585500e_2888500n_las.laz
20170310_2017_587000e_2889500n_las.laz
20170309_2017_589500e_2887000n_las.laz
20170310_2017_586000e_2887000n_las.laz
20170310_2017_586500e_2883500n_las.laz
20170310_2017_585500e_2888000n_las.laz
20170310_2017_585500e_2879000n_las.laz
20170309_2017_589500e_2886500n_las.laz
20170310_2017_587000e_2889000n_las.laz
20170310_2017_585500e_2887500n_las.laz
20170309_2017_589500e_2886000n_las.laz
20170310_2017_585500e_2887000n_las.laz
20170310_2017_586000e_2886500n_las.laz
20170310_2017_586500e_2883000n_las.laz
20170310_2017_585500e_2878500n_las.laz
20170309_2017_589500e_2885500n_las.laz
20170310_2017_585500e_2886500n_las.laz
20170310_2017_587000e_2881500n_las.laz
20170310_2017_583000e_2849500n_las.laz
20170310_2017_587000e_2888500n_las.laz
20170310_2017_585500e_2886000n_las.laz
20170309_2017_589500e_2885000n_las.laz
20170310_2017_586500e_2882500n_las.laz
20170310_2017_586000e_2886000n_las.laz
20170310_2017_585500e_2885500n_las.laz
20170310_2017_585500e_2878000n_las.laz
20170310_2017_587000e_2888000n_las.laz
20170309_2017_589500e_2884500n_las.laz
20170310_2017_585500e_2885000n_las.laz
20170310_2017_586000e_2885500n_las.laz
20170310_2017_586500e_2882000n_las.laz
20170310_2017_585500e_2884500n_las.laz
20170309_2017_589500e_2884000n_las.laz
20170310_2017_583000e_2849000n_las.laz
20170310_2017_585500e_2877500n_las.laz
20170310_2017_587000e_2887500n_las.laz
20170310_2017_587000e_2881000n_las.laz
20170310_2017_585500e_2884000n_las.laz
20170309_2017_589500e_2883500n_las.laz
20170310_2017_586000e_2885000n_las.laz
20170310_2017_585500e_2883500n_las.laz
20170309_2017_589500e_2883000n_las.laz
20170310_2017_585500e_2877000n_las.laz
20170310_2017_587000e_2887000n_las.laz
20170310_2017_585500e_2883000n_las.laz
20170310_2017_586000e_2884500n_las.laz
20170309_2017_589500e_2882500n_las.laz
20170310_2017_586500e_2881500n_las.laz
20170310_2017_586000e_2884000n_las.laz
20170310_2017_583000e_2848500n_las.laz
20170310_2017_587000e_2886500n_las.laz
20170309_2017_589500e_2882000n_las.laz
20170310_2017_585500e_2876500n_las.laz
20170310_2017_585500e_2882500n_las.laz
20170310_2017_587000e_2880500n_las.laz
20170309_2017_589500e_2881500n_las.laz
20170310_2017_587000e_2886000n_las.laz
20170310_2017_586000e_2883500n_las.laz
20170309_2017_589500e_2878000n_las.laz
20170309_2017_589500e_2881000n_las.laz
20170309_2017_589500e_2877500n_las.laz
20170310_2017_585500e_2876000n_las.laz
20170309_2017_589500e_2877000n_las.laz
20170309_2017_589500e_2876500n_las.laz
20170310_2017_583000e_2848000n_las.laz
20170309_2017_589500e_2880500n_las.laz
20170309_2017_589500e_2876000n_las.laz
20170310_2017_587000e_2885500n_las.laz
20170309_2017_589500e_2875500n_las.laz
20170310_2017_586000e_2883000n_las.laz
20170309_2017_589500e_2880000n_las.laz
20170309_2017_589500e_2875000n_las.laz
20170310_2017_586500e_2881000n_las.laz
20170309_2017_589000e_2890000n_las.laz
20170310_2017_585500e_2875500n_las.laz
20170309_2017_589000e_2889500n_las.laz
20170310_2017_585000e_2882000n_las.laz
20170310_2017_585000e_2881500n_las.laz
20170310_2017_585000e_2881000n_las.laz
20170309_2017_589500e_2879500n_las.laz
20170310_2017_585000e_2880500n_las.laz
20170309_2017_589500e_2879000n_las.laz
20170310_2017_585000e_2880000n_las.laz
20170310_2017_585000e_2879500n_las.laz
20170309_2017_589000e_2889000n_las.laz
20170309_2017_589500e_2878500n_las.laz
20170310_2017_587000e_2880000n_las.laz
20170310_2017_587000e_2885000n_las.laz
20170309_2017_589000e_2883500n_las.laz
20170309_2017_588500e_2889000n_las.laz
20170309_2017_589000e_2888500n_las.laz
20170310_2017_586000e_2882500n_las.laz
20170309_2017_589000e_2883000n_las.laz
20170310_2017_583000e_2847500n_las.laz
20170309_2017_589000e_2888000n_las.laz
20170310_2017_587000e_2884500n_las.laz
20170309_2017_590000e_2890000n_las.laz
20170309_2017_590000e_2889500n_las.laz
20170309_2017_589000e_2882500n_las.laz
20170309_2017_588500e_2888500n_las.laz
20170309_2017_590000e_2889000n_las.laz
20170310_2017_586500e_2880500n_las.laz
20170310_2017_586000e_2882000n_las.laz
20170309_2017_588500e_2879000n_las.laz
20170310_2017_587000e_2879500n_las.laz
20170309_2017_589000e_2882000n_las.laz
20170309_2017_588500e_2888000n_las.laz
20170309_2017_589000e_2887500n_las.laz
20170309_2017_588500e_2878500n_las.laz
20170309_2017_589000e_2881500n_las.laz
20170310_2017_586000e_2881500n_las.laz
20170309_2017_588500e_2887500n_las.laz
20170310_2017_587000e_2884000n_las.laz
20170310_2017_586500e_2880000n_las.laz
20170309_2017_588500e_2878000n_las.laz
20170309_2017_589000e_2887000n_las.laz
20170309_2017_589000e_2881000n_las.laz
20170310_2017_586000e_2881000n_las.laz
20170309_2017_589000e_2880500n_las.laz
20170309_2017_588500e_2887000n_las.laz
20170309_2017_588500e_2877500n_las.laz
20170310_2017_587000e_2879000n_las.laz
20170309_2017_589000e_2880000n_las.laz
20170309_2017_589000e_2886500n_las.laz
20170309_2017_589000e_2879500n_las.laz
20170310_2017_586500e_2879500n_las.laz
20170309_2017_588000e_2882000n_las.laz
20170309_2017_588000e_2890000n_las.laz
20170309_2017_588000e_2889500n_las.laz
20170309_2017_589000e_2879000n_las.laz
20170309_2017_589000e_2886000n_las.laz
20170310_2017_586000e_2880500n_las.laz
20170309_2017_589000e_2878500n_las.laz
20170309_2017_588500e_2886500n_las.laz
20170309_2017_588000e_2889000n_las.laz
20170309_2017_589000e_2878000n_las.laz
20170310_2017_587000e_2878500n_las.laz
20170309_2017_589000e_2885500n_las.laz
20170309_2017_588500e_2886000n_las.laz
20170309_2017_589000e_2877500n_las.laz
20170310_2017_586500e_2879000n_las.laz
20170309_2017_589000e_2877000n_las.laz
20170310_2017_586000e_2880000n_las.laz
20170309_2017_588000e_2888500n_las.laz
20170309_2017_588500e_2885500n_las.laz
20170309_2017_589000e_2885000n_las.laz
20170309_2017_589000e_2876500n_las.laz
20170309_2017_588000e_2881500n_las.laz
20170309_2017_588000e_2888000n_las.laz
20170309_2017_589000e_2876000n_las.laz
20170310_2017_587000e_2878000n_las.laz
20170310_2017_586500e_2878500n_las.laz
20170309_2017_589000e_2884500n_las.laz
20170310_2017_586000e_2879500n_las.laz
20170309_2017_588500e_2885000n_las.laz
20170309_2017_589000e_2875500n_las.laz
20170309_2017_588000e_2887500n_las.laz
20170309_2017_589000e_2875000n_las.laz
20170309_2017_588500e_2890000n_las.laz
20170309_2017_588500e_2889500n_las.laz
20170309_2017_589000e_2884000n_las.laz
20170310_2017_586500e_2890000n_las.laz
20170309_2017_588000e_2881000n_las.laz
20170310_2017_586500e_2889500n_las.laz
20170310_2017_586500e_2878000n_las.laz
20170309_2017_588000e_2887000n_las.laz
20170309_2017_587500e_2881500n_las.laz
20170309_2017_585500e_2866500n_las.laz
20170309_2017_585000e_2864500n_las.laz
20170309_2017_588500e_2884500n_las.laz
20170310_2017_586500e_2889000n_las.laz
20170309_2017_588000e_2886500n_las.laz
20170310_2017_586500e_2877500n_las.laz
20170309_2017_588000e_2886000n_las.laz
20170309_2017_588000e_2880500n_las.laz
20170309_2017_584500e_2871000n_las.laz
20170309_2017_584500e_2870500n_las.laz
20170309_2017_588000e_2885500n_las.laz
20170309_2017_587500e_2881000n_las.laz
20170309_2017_588500e_2884000n_las.laz
20170309_2017_585500e_2866000n_las.laz
20170309_2017_584500e_2870000n_las.laz
20170310_2017_586500e_2888500n_las.laz
20170310_2017_586000e_2890000n_las.laz
20170309_2017_588000e_2885000n_las.laz
20170310_2017_586000e_2889500n_las.laz
20170309_2017_588000e_2880000n_las.laz
20170309_2017_587500e_2880500n_las.laz
20170309_2017_584000e_2869000n_las.laz
20170309_2017_588000e_2884500n_las.laz
20170309_2017_588500e_2883500n_las.laz
20170309_2017_584000e_2868500n_las.laz
20170310_2017_586500e_2888000n_las.laz
20170309_2017_584000e_2868000n_las.laz
20170309_2017_584500e_2869500n_las.laz
20170309_2017_585500e_2865500n_las.laz
20170309_2017_588000e_2879500n_las.laz
20170309_2017_588000e_2884000n_las.laz
20170309_2017_588500e_2883000n_las.laz
20170309_2017_584000e_2867500n_las.laz
20170309_2017_587500e_2880000n_las.laz
20170309_2017_584000e_2867000n_las.laz
20170309_2017_588000e_2883500n_las.laz
20170310_2017_586500e_2887500n_las.laz
20170309_2017_584000e_2866500n_las.laz
20170309_2017_588000e_2879000n_las.laz
20170309_2017_588500e_2882500n_las.laz
20170309_2017_584000e_2866000n_las.laz
20170309_2017_584500e_2869000n_las.laz
20170309_2017_588000e_2883000n_las.laz
20170309_2017_587500e_2879500n_las.laz
20170310_2017_586500e_2887000n_las.laz
20170309_2017_585500e_2865000n_las.laz
20170309_2017_588500e_2882000n_las.laz
20170309_2017_584000e_2865500n_las.laz
20170309_2017_588000e_2878500n_las.laz
20170309_2017_584500e_2868500n_las.laz
20170309_2017_585500e_2864500n_las.laz
20170310_2017_586500e_2886500n_las.laz
20170309_2017_588500e_2881500n_las.laz
20170309_2017_588000e_2878000n_las.laz
20170309_2017_587500e_2879000n_las.laz
20170309_2017_588000e_2882500n_las.laz
20170309_2017_584000e_2865000n_las.laz
20170309_2017_583500e_2862500n_las.laz
20170309_2017_588000e_2877500n_las.laz
20170309_2017_584500e_2868000n_las.laz
20170309_2017_588500e_2881000n_las.laz
20170309_2017_585000e_2872000n_las.laz
20170309_2017_585000e_2871500n_las.laz
20170309_2017_585000e_2871000n_las.laz
20170309_2017_585000e_2870500n_las.laz
20170309_2017_584000e_2864500n_las.laz
20170309_2017_587500e_2886500n_las.laz
20170309_2017_587500e_2878500n_las.laz
20170309_2017_585000e_2870000n_las.laz
20170309_2017_588500e_2880500n_las.laz
20170309_2017_584500e_2867500n_las.laz
20170309_2017_587500e_2886000n_las.laz
20170309_2017_583500e_2862000n_las.laz
20170309_2017_583500e_2852500n_las.laz
20170309_2017_584000e_2864000n_las.laz
20170309_2017_585000e_2869500n_las.laz
20170309_2017_587500e_2885500n_las.laz
20170309_2017_588500e_2880000n_las.laz
20170309_2017_587500e_2878000n_las.laz
20170309_2017_583500e_2861500n_las.laz
20170309_2017_583500e_2867000n_las.laz
20170309_2017_583500e_2866500n_las.laz
20170309_2017_583500e_2852000n_las.laz
20170309_2017_587500e_2885000n_las.laz
20170309_2017_588500e_2879500n_las.laz
20170309_2017_584500e_2867000n_las.laz
20170309_2017_583500e_2866000n_las.laz
20170309_2017_585000e_2869000n_las.laz
20170309_2017_587500e_2877500n_las.laz
20170309_2017_585000e_2868500n_las.laz
20170308_2017_586500e_2874000n_las.laz
20170309_2017_583500e_2861000n_las.laz
20170309_2017_583500e_2865500n_las.laz
20170309_2017_587500e_2884500n_las.laz
20170309_2017_583500e_2851500n_las.laz
20170309_2017_585500e_2872000n_las.laz
20170309_2017_585500e_2871500n_las.laz
20170309_2017_584500e_2866500n_las.laz
20170308_2017_586500e_2873500n_las.laz
20170309_2017_585000e_2868000n_las.laz
20170309_2017_587500e_2884000n_las.laz
20170309_2017_583500e_2865000n_las.laz
20170309_2017_583500e_2860500n_las.laz
20170309_2017_585500e_2871000n_las.laz
20170309_2017_583500e_2851000n_las.laz
20170309_2017_584500e_2866000n_las.laz
20170309_2017_587500e_2883500n_las.laz
20170309_2017_583500e_2864500n_las.laz
20170308_2017_586500e_2873000n_las.laz
20170309_2017_583500e_2860000n_las.laz
20170309_2017_583500e_2850500n_las.laz
20170309_2017_585000e_2867500n_las.laz
20170309_2017_584500e_2865500n_las.laz
20170309_2017_583500e_2864000n_las.laz
20170309_2017_585500e_2870500n_las.laz
20170309_2017_587500e_2883000n_las.laz
20170309_2017_583500e_2863500n_las.laz
20170309_2017_583500e_2850000n_las.laz
20170309_2017_584500e_2865000n_las.laz
20170309_2017_583500e_2859500n_las.laz
20170309_2017_585500e_2870000n_las.laz
20170308_2017_586500e_2872500n_las.laz
20170309_2017_583500e_2863000n_las.laz
20170309_2017_585000e_2867000n_las.laz
20170309_2017_587500e_2882500n_las.laz
20170309_2017_585500e_2869500n_las.laz
20170309_2017_584500e_2864500n_las.laz
20170308_2017_586500e_2872000n_las.laz
20170309_2017_583500e_2859000n_las.laz
20170309_2017_585500e_2869000n_las.laz
20170309_2017_585500e_2868500n_las.laz
20170309_2017_584500e_2864000n_las.laz
20170308_2017_586500e_2864000n_las.laz
20170309_2017_585500e_2868000n_las.laz
20170308_2017_586500e_2871500n_las.laz
20170309_2017_583500e_2849500n_las.laz
20170309_2017_585000e_2866500n_las.laz
20170309_2017_584000e_2871000n_las.laz
20170309_2017_583500e_2858500n_las.laz
20170309_2017_587500e_2882000n_las.laz
20170309_2017_584000e_2870500n_las.laz
20170308_2017_586500e_2871000n_las.laz
20170308_2017_586000e_2877000n_las.laz
20170309_2017_584000e_2870000n_las.laz
20170309_2017_585500e_2867500n_las.laz
20170309_2017_584000e_2869500n_las.laz
20170309_2017_583500e_2849000n_las.laz
20170308_2017_586500e_2870500n_las.laz
20170308_2017_586000e_2867500n_las.laz
20170308_2017_586000e_2876500n_las.laz
20170308_2017_586500e_2870000n_las.laz
20170309_2017_583500e_2858000n_las.laz
20170309_2017_585000e_2866000n_las.laz
20170302_2017_587500e_2871000n_las.laz
20170308_2017_586500e_2869500n_las.laz
20170309_2017_585500e_2867000n_las.laz
20170309_2017_583500e_2848500n_las.laz
20170308_2017_586000e_2867000n_las.laz
20170302_2017_587500e_2870500n_las.laz
20170308_2017_586500e_2869000n_las.laz
20170309_2017_583500e_2857500n_las.laz
20170308_2017_586000e_2876000n_las.laz
20170309_2017_583500e_2848000n_las.laz
20170309_2017_585000e_2865500n_las.laz
20170302_2017_587500e_2870000n_las.laz
20170308_2017_586500e_2868500n_las.laz
20170302_2017_587500e_2869500n_las.laz
20170302_2017_587000e_2874500n_las.laz
20170309_2017_583500e_2857000n_las.laz
20170308_2017_586000e_2875500n_las.laz
20170308_2017_586000e_2866500n_las.laz
20170308_2017_586500e_2868000n_las.laz
20170302_2017_587000e_2874000n_las.laz
20170308_2017_586000e_2875000n_las.laz
20170302_2017_587500e_2869000n_las.laz
20170309_2017_583500e_2847500n_las.laz
20170309_2017_585000e_2865000n_las.laz
20170308_2017_586000e_2874500n_las.laz
20170302_2017_587000e_2873500n_las.laz
20170308_2017_586000e_2866000n_las.laz
20170309_2017_580500e_2863000n_las.laz
20170309_2017_580500e_2862500n_las.laz
20170308_2017_586000e_2874000n_las.laz
20170309_2017_583500e_2856500n_las.laz
20170308_2017_587000e_2877500n_las.laz
20170302_2017_587500e_2868500n_las.laz
20170308_2017_586000e_2873500n_las.laz
20170302_2017_587000e_2873000n_las.laz
20170302_2017_587000e_2864500n_las.laz
20170308_2017_586500e_2867500n_las.laz
20170308_2017_586000e_2865500n_las.laz
20170308_2017_586000e_2873000n_las.laz
20170308_2017_586000e_2872500n_las.laz
20170302_2017_587500e_2868000n_las.laz
20170302_2017_587000e_2872500n_las.laz
20170308_2017_586500e_2877000n_las.laz
20170302_2017_587000e_2864000n_las.laz
20170308_2017_586000e_2865000n_las.laz
20170309_2017_583500e_2856000n_las.laz
20170308_2017_586000e_2872000n_las.laz
20170302_2017_587000e_2872000n_las.laz
20170302_2017_587500e_2867500n_las.laz
20170308_2017_586000e_2871500n_las.laz
20170302_2017_584000e_2863500n_las.laz
20170308_2017_586500e_2876500n_las.laz
20170308_2017_586500e_2867000n_las.laz
20170302_2017_587000e_2871500n_las.laz
20170308_2017_586000e_2864500n_las.laz
20170308_2017_586000e_2871000n_las.laz
20170309_2017_583500e_2855500n_las.laz
20170302_2017_587500e_2867000n_las.laz
20170302_2017_584000e_2863000n_las.laz
20170302_2017_587000e_2871000n_las.laz
20170302_2017_587500e_2866500n_las.laz
20170308_2017_586000e_2870500n_las.laz
20170308_2017_586500e_2876000n_las.laz
20170309_2017_583500e_2855000n_las.laz
20170308_2017_586000e_2864000n_las.laz
20170302_2017_587000e_2870500n_las.laz
20170308_2017_586500e_2866500n_las.laz
20170302_2017_587500e_2866000n_las.laz
20170302_2017_587000e_2870000n_las.laz
20170302_2017_584000e_2862500n_las.laz
20170302_2017_587000e_2869500n_las.laz
20170308_2017_586000e_2870000n_las.laz
20170302_2017_587000e_2869000n_las.laz
20170302_2017_587500e_2865500n_las.laz
20170302_2017_587500e_2877000n_las.laz
20170309_2017_583500e_2854500n_las.laz
20170308_2017_586500e_2875500n_las.laz
20170302_2017_587000e_2868500n_las.laz
20170308_2017_586000e_2869500n_las.laz
20170302_2017_587500e_2865000n_las.laz
20170308_2017_586500e_2866000n_las.laz
20170302_2017_587500e_2876500n_las.laz
20170302_2017_587000e_2868000n_las.laz
20170308_2017_586500e_2875000n_las.laz
20170308_2017_586000e_2869000n_las.laz
20170309_2017_583500e_2854000n_las.laz
20170302_2017_587500e_2864500n_las.laz
20170302_2017_587000e_2867500n_las.laz
20170302_2017_584000e_2862000n_las.laz
20170308_2017_586500e_2865500n_las.laz
20170308_2017_586500e_2874500n_las.laz
20170308_2017_586000e_2868500n_las.laz
20170302_2017_587500e_2876000n_las.laz
20170302_2017_587500e_2864000n_las.laz
20170309_2017_583500e_2853500n_las.laz
20170302_2017_587000e_2867000n_las.laz
20170308_2017_586000e_2868000n_las.laz
20170308_2017_586500e_2865000n_las.laz
20170302_2017_584000e_2854500n_las.laz
20170309_2017_583500e_2853000n_las.laz
20170302_2017_587000e_2877000n_las.laz
20170302_2017_584000e_2861500n_las.laz
20170302_2017_587500e_2875500n_las.laz
20170302_2017_587000e_2866500n_las.laz
20170302_2017_583000e_2859000n_las.laz
20170308_2017_586500e_2864500n_las.laz
20170302_2017_582500e_2861000n_las.laz
20170302_2017_584000e_2854000n_las.laz
20170302_2017_587000e_2876500n_las.laz
20170302_2017_587500e_2875000n_las.laz
20170302_2017_587000e_2866000n_las.laz
20170302_2017_584000e_2861000n_las.laz
20170302_2017_583000e_2858500n_las.laz
20170302_2017_587500e_2874500n_las.laz
20170302_2017_587000e_2865500n_las.laz
20170302_2017_582500e_2860500n_las.laz
20170302_2017_582500e_2851000n_las.laz
20170302_2017_587500e_2874000n_las.laz
20170302_2017_584000e_2860500n_las.laz
20170302_2017_587000e_2876000n_las.laz
20170302_2017_587000e_2865000n_las.laz
20170302_2017_584000e_2853500n_las.laz
20170302_2017_587500e_2873500n_las.laz
20170302_2017_582500e_2850500n_las.laz
20170302_2017_583000e_2858000n_las.laz
20170302_2017_582500e_2860000n_las.laz
20170302_2017_582000e_2857500n_las.laz
20170302_2017_587500e_2873000n_las.laz
20170302_2017_584000e_2860000n_las.laz
20170302_2017_584000e_2853000n_las.laz
20170302_2017_582000e_2857000n_las.laz
20170302_2017_582500e_2859500n_las.laz
20170302_2017_587000e_2875500n_las.laz
20170302_2017_587500e_2872500n_las.laz
20170302_2017_583000e_2857500n_las.laz
20170302_2017_582500e_2850000n_las.laz
20170302_2017_584000e_2859500n_las.laz
20170302_2017_582000e_2856500n_las.laz
20170302_2017_587500e_2872000n_las.laz
20170302_2017_587000e_2875000n_las.laz
20170302_2017_582500e_2859000n_las.laz
20170302_2017_584000e_2852500n_las.laz
20170302_2017_584000e_2859000n_las.laz
20170302_2017_587500e_2871500n_las.laz
20170302_2017_582000e_2856000n_las.laz
20170302_2017_582000e_2847500n_las.laz
20170302_2017_583000e_2857000n_las.laz
20170302_2017_582500e_2858500n_las.laz
20170302_2017_582500e_2849500n_las.laz
20170302_2017_581500e_2863500n_las.laz
20170302_2017_581500e_2863000n_las.laz
20170302_2017_582000e_2855500n_las.laz
20170302_2017_581500e_2854000n_las.laz
20170302_2017_584000e_2852000n_las.laz
20170302_2017_581500e_2853500n_las.laz
20170302_2017_582000e_2855000n_las.laz
20170302_2017_582500e_2858000n_las.laz
20170302_2017_584000e_2858500n_las.laz
20170302_2017_581500e_2853000n_las.laz
20170302_2017_581500e_2862500n_las.laz
20170302_2017_582500e_2849000n_las.laz
20170302_2017_582000e_2854500n_las.laz
20170302_2017_581500e_2852500n_las.laz
20170302_2017_583000e_2856500n_las.laz
20170302_2017_581500e_2852000n_las.laz
20170302_2017_582500e_2857500n_las.laz
20170302_2017_584000e_2851500n_las.laz
20170302_2017_582000e_2854000n_las.laz
20170302_2017_581500e_2851500n_las.laz
20170302_2017_581500e_2862000n_las.laz
20170302_2017_582500e_2848500n_las.laz
20170302_2017_581500e_2851000n_las.laz
20170302_2017_584000e_2858000n_las.laz
20170302_2017_582000e_2853500n_las.laz
20170302_2017_582500e_2857000n_las.laz
20170302_2017_583000e_2856000n_las.laz
20170302_2017_581500e_2850500n_las.laz
20170302_2017_581500e_2861500n_las.laz
20170302_2017_582000e_2853000n_las.laz
20170302_2017_584000e_2851000n_las.laz
20170302_2017_582500e_2856500n_las.laz
20170302_2017_582500e_2848000n_las.laz
20170302_2017_581500e_2850000n_las.laz
20170302_2017_582000e_2852500n_las.laz
20170302_2017_581500e_2849500n_las.laz
20170302_2017_581500e_2861000n_las.laz
20170302_2017_581500e_2849000n_las.laz
20170302_2017_582500e_2856000n_las.laz
20170302_2017_584000e_2850500n_las.laz
20170302_2017_583000e_2855500n_las.laz
20170302_2017_581500e_2848500n_las.laz
20170302_2017_582000e_2852000n_las.laz
20170302_2017_581500e_2848000n_las.laz
20170302_2017_582500e_2847500n_las.laz
20170302_2017_584000e_2857500n_las.laz
20170302_2017_581500e_2847500n_las.laz
20170302_2017_581000e_2863500n_las.laz
20170302_2017_581000e_2863000n_las.laz
20170302_2017_582000e_2851500n_las.laz
20170302_2017_581500e_2860500n_las.laz
20170302_2017_582500e_2855500n_las.laz
20170302_2017_582000e_2863500n_las.laz
20170302_2017_581000e_2862500n_las.laz
20170302_2017_584000e_2850000n_las.laz
20170302_2017_582000e_2863000n_las.laz
20170302_2017_583000e_2855000n_las.laz
20170302_2017_582000e_2851000n_las.laz
20170302_2017_581000e_2862000n_las.laz
20170302_2017_582500e_2855000n_las.laz
20170302_2017_581500e_2860000n_las.laz
20170302_2017_581000e_2861500n_las.laz
20170302_2017_582000e_2850500n_las.laz
20170302_2017_584000e_2857000n_las.laz
20170302_2017_582000e_2862500n_las.laz
20170302_2017_583000e_2854500n_las.laz
20170302_2017_581000e_2861000n_las.laz
20170302_2017_581500e_2859500n_las.laz
20170302_2017_582500e_2854500n_las.laz
20170302_2017_581000e_2860500n_las.laz
20170302_2017_584000e_2849500n_las.laz
20170302_2017_582000e_2850000n_las.laz
20170302_2017_581000e_2860000n_las.laz
20170302_2017_582000e_2862000n_las.laz
20170302_2017_581500e_2859000n_las.laz
20170302_2017_583000e_2854000n_las.laz
20170302_2017_581000e_2859500n_las.laz
20170302_2017_584000e_2856500n_las.laz
20170302_2017_582000e_2849500n_las.laz
20170302_2017_582500e_2854000n_las.laz
20170302_2017_582000e_2861500n_las.laz
20170302_2017_581000e_2859000n_las.laz
20170302_2017_581500e_2858500n_las.laz
20170302_2017_581000e_2858500n_las.laz
20170302_2017_583000e_2863500n_las.laz
20170302_2017_583000e_2853500n_las.laz
20170302_2017_583000e_2863000n_las.laz
20170302_2017_582000e_2861000n_las.laz
20170302_2017_581000e_2858000n_las.laz
20170302_2017_582000e_2849000n_las.laz
20170302_2017_582500e_2853500n_las.laz
20170302_2017_581000e_2857500n_las.laz
20170302_2017_581500e_2858000n_las.laz
20170302_2017_584000e_2856000n_las.laz
20170302_2017_583000e_2862500n_las.laz
20170302_2017_583000e_2853000n_las.laz
20170302_2017_581000e_2857000n_las.laz
20170302_2017_582000e_2860500n_las.laz
20170302_2017_582500e_2853000n_las.laz
20170302_2017_582000e_2848500n_las.laz
20170302_2017_581000e_2856500n_las.laz
20170302_2017_581500e_2857500n_las.laz
20170302_2017_583000e_2852500n_las.laz
20170302_2017_583000e_2862000n_las.laz
20170302_2017_581000e_2856000n_las.laz
20170302_2017_582500e_2852500n_las.laz
20170302_2017_582000e_2860000n_las.laz
20170302_2017_582000e_2848000n_las.laz
20170302_2017_584000e_2855500n_las.laz
20170302_2017_581000e_2855500n_las.laz
20170302_2017_583000e_2861500n_las.laz
20170302_2017_581500e_2857000n_las.laz
20170302_2017_583000e_2852000n_las.laz
20170302_2017_582500e_2852000n_las.laz
20170302_2017_581000e_2855000n_las.laz
20170302_2017_581000e_2850500n_las.laz
20170302_2017_582000e_2859500n_las.laz
20170302_2017_583000e_2861000n_las.laz
20170302_2017_581000e_2850000n_las.laz
20170302_2017_581000e_2854500n_las.laz
20170302_2017_582500e_2851500n_las.laz
20170302_2017_582500e_2863500n_las.laz
20170302_2017_584000e_2855000n_las.laz
20170302_2017_581500e_2856500n_las.laz
20170302_2017_581000e_2849500n_las.laz
20170302_2017_582500e_2863000n_las.laz
20170302_2017_582000e_2859000n_las.laz
20170302_2017_583000e_2860500n_las.laz
20170302_2017_581000e_2854000n_las.laz
20170302_2017_581000e_2849000n_las.laz
20170301_2017_584500e_2863000n_las.laz
20170302_2017_581000e_2848500n_las.laz
20170302_2017_581000e_2848000n_las.laz
20170302_2017_581000e_2853500n_las.laz
20170302_2017_581000e_2847500n_las.laz
20170302_2017_583000e_2860000n_las.laz
20170302_2017_581500e_2856000n_las.laz
20170302_2017_580500e_2854500n_las.laz
20170302_2017_580500e_2852500n_las.laz
20170302_2017_580500e_2852000n_las.laz
20170302_2017_580500e_2851500n_las.laz
20170302_2017_580500e_2851000n_las.laz
20170302_2017_580500e_2850500n_las.laz
20170302_2017_582000e_2858500n_las.laz
20170302_2017_580500e_2850000n_las.laz
20170302_2017_580500e_2849500n_las.laz
20170302_2017_580500e_2849000n_las.laz
20170302_2017_580500e_2848500n_las.laz
20170302_2017_581000e_2853000n_las.laz
20170302_2017_582500e_2862500n_las.laz
20170301_2017_584500e_2853000n_las.laz
20170302_2017_580500e_2848000n_las.laz
20170302_2017_580500e_2847500n_las.laz
20170301_2017_584500e_2863500n_las.laz
20170302_2017_583000e_2859500n_las.laz
20170302_2017_581500e_2855500n_las.laz
20170302_2017_581000e_2852500n_las.laz
20170302_2017_582000e_2858000n_las.laz
20170302_2017_581500e_2855000n_las.laz
20170225_2017_586500e_2861500n_las.laz
20170225_2017_586500e_2849500n_las.laz
20170302_2017_581000e_2852000n_las.laz
20170302_2017_582500e_2862000n_las.laz
20170302_2017_581500e_2854500n_las.laz
20170225_2017_586000e_2856500n_las.laz
20170301_2017_584500e_2862500n_las.laz
20170225_2017_586500e_2861000n_las.laz
20170302_2017_581000e_2851500n_las.laz
20170225_2017_585500e_2864000n_las.laz
20170225_2017_586500e_2849000n_las.laz
20170302_2017_582500e_2861500n_las.laz
20170302_2017_581000e_2851000n_las.laz
20170301_2017_584500e_2852500n_las.laz
20170225_2017_586500e_2860500n_las.laz
20170225_2017_586000e_2856000n_las.laz
20170225_2017_585500e_2863500n_las.laz
20170225_2017_585500e_2854000n_las.laz
20170225_2017_586500e_2848500n_las.laz
20170225_2017_586500e_2860000n_las.laz
20170225_2017_585000e_2861500n_las.laz
20170225_2017_586000e_2855500n_las.laz
20170225_2017_585500e_2863000n_las.laz
20170225_2017_586500e_2848000n_las.laz
20170225_2017_585500e_2853500n_las.laz
20170225_2017_586500e_2859500n_las.laz
20170225_2017_586000e_2855000n_las.laz
20170225_2017_586500e_2847500n_las.laz
20170301_2017_584500e_2852000n_las.laz
20170225_2017_586500e_2859000n_las.laz
20170225_2017_586500e_2858500n_las.laz
20170225_2017_585500e_2853000n_las.laz
20170225_2017_585000e_2861000n_las.laz
20170225_2017_585500e_2862500n_las.laz
20170225_2017_586500e_2847000n_las.laz
20170301_2017_584500e_2862000n_las.laz
20170225_2017_586000e_2863500n_las.laz
20170225_2017_586000e_2854500n_las.laz
20170225_2017_586500e_2858000n_las.laz
20170225_2017_586500e_2857500n_las.laz
20170225_2017_585500e_2852500n_las.laz
20170225_2017_586000e_2854000n_las.laz
20170225_2017_586000e_2863000n_las.laz
20170225_2017_586500e_2857000n_las.laz
20170225_2017_585000e_2860500n_las.laz
20170301_2017_584500e_2851500n_las.laz
20170225_2017_585500e_2862000n_las.laz
20170225_2017_585500e_2852000n_las.laz
20170225_2017_586500e_2856500n_las.laz
20170225_2017_586000e_2853500n_las.laz
20170301_2017_584500e_2861500n_las.laz
20170225_2017_586000e_2862500n_las.laz
20170225_2017_585500e_2851500n_las.laz
20170225_2017_585000e_2860000n_las.laz
20170225_2017_586000e_2853000n_las.laz
20170225_2017_586500e_2854000n_las.laz
20170225_2017_585500e_2861500n_las.laz
20170301_2017_584500e_2851000n_las.laz
20170225_2017_586500e_2853500n_las.laz
20170225_2017_586000e_2852500n_las.laz
20170225_2017_585500e_2851000n_las.laz
20170225_2017_585500e_2861000n_las.laz
20170225_2017_586000e_2862000n_las.laz
20170301_2017_584500e_2861000n_las.laz
20170225_2017_585000e_2859500n_las.laz
20170225_2017_586500e_2853000n_las.laz
20170225_2017_585500e_2860500n_las.laz
20170225_2017_586000e_2852000n_las.laz
20170225_2017_585500e_2850500n_las.laz
20170225_2017_585500e_2860000n_las.laz
20170225_2017_586500e_2852500n_las.laz
20170301_2017_584500e_2850500n_las.laz
20170225_2017_585500e_2850000n_las.laz
20170225_2017_586000e_2861500n_las.laz
20170225_2017_586000e_2851500n_las.laz
20170225_2017_585000e_2859000n_las.laz
20170225_2017_585500e_2859500n_las.laz
20170301_2017_584500e_2860500n_las.laz
20170225_2017_586000e_2861000n_las.laz
20170225_2017_586500e_2852000n_las.laz
20170225_2017_585500e_2849500n_las.laz
20170225_2017_586000e_2851000n_las.laz
20170225_2017_585500e_2859000n_las.laz
20170301_2017_584500e_2850000n_las.laz
20170225_2017_586000e_2860500n_las.laz
20170225_2017_585000e_2858500n_las.laz
20170225_2017_586500e_2851500n_las.laz
20170225_2017_585500e_2849000n_las.laz
20170225_2017_586000e_2850500n_las.laz
20170225_2017_585500e_2858500n_las.laz
20170225_2017_586000e_2860000n_las.laz
20170225_2017_585500e_2858000n_las.laz
20170301_2017_584500e_2860000n_las.laz
20170225_2017_586000e_2850000n_las.laz
20170225_2017_586500e_2851000n_las.laz
20170225_2017_586000e_2859500n_las.laz
20170225_2017_585500e_2848500n_las.laz
20170225_2017_586000e_2849500n_las.laz
20170225_2017_585500e_2857500n_las.laz
20170225_2017_585000e_2858000n_las.laz
20170225_2017_586000e_2859000n_las.laz
20170225_2017_586500e_2850500n_las.laz
20170301_2017_584500e_2849500n_las.laz
20170225_2017_585500e_2848000n_las.laz
20170225_2017_586000e_2849000n_las.laz
20170225_2017_586000e_2858500n_las.laz
20170225_2017_585500e_2857000n_las.laz
20170225_2017_586500e_2850000n_las.laz
20170225_2017_586000e_2858000n_las.laz
20170301_2017_584500e_2859500n_las.laz
20170225_2017_586000e_2848500n_las.laz
20170225_2017_585500e_2847500n_las.laz
20170225_2017_585500e_2856500n_las.laz
20170225_2017_585000e_2851500n_las.laz
20170225_2017_586000e_2857500n_las.laz
20170225_2017_585000e_2857500n_las.laz
20170225_2017_585500e_2847000n_las.laz
20170225_2017_585000e_2864000n_las.laz
20170225_2017_586000e_2848000n_las.laz
20170225_2017_585500e_2856000n_las.laz
20170301_2017_584500e_2859000n_las.laz
20170225_2017_586000e_2857000n_las.laz
20170301_2017_584500e_2849000n_las.laz
20170225_2017_585000e_2851000n_las.laz
20170225_2017_585000e_2863500n_las.laz
20170225_2017_586000e_2847500n_las.laz
20170225_2017_585500e_2855500n_las.laz
20170224_2017_588500e_2856000n_las.laz
20170225_2017_585000e_2857000n_las.laz
20170225_2017_586000e_2847000n_las.laz
20170224_2017_588000e_2860500n_las.laz
20170224_2017_588500e_2855500n_las.laz
20170225_2017_585000e_2850500n_las.laz
20170225_2017_585000e_2863000n_las.laz
20170224_2017_588500e_2855000n_las.laz
20170225_2017_585500e_2855000n_las.laz
20170224_2017_588500e_2854500n_las.laz
20170301_2017_584500e_2858500n_las.laz
20170224_2017_588000e_2860000n_las.laz
20170224_2017_588500e_2854000n_las.laz
20170301_2017_584500e_2848500n_las.laz
20170224_2017_588500e_2853500n_las.laz
20170225_2017_585000e_2850000n_las.laz
20170224_2017_588500e_2853000n_las.laz
20170224_2017_588500e_2852500n_las.laz
20170224_2017_588500e_2852000n_las.laz
20170224_2017_588500e_2851500n_las.laz
20170224_2017_588500e_2851000n_las.laz
20170225_2017_585500e_2854500n_las.laz
20170224_2017_588500e_2850500n_las.laz
20170224_2017_588500e_2850000n_las.laz
20170224_2017_588000e_2859500n_las.laz
20170225_2017_585000e_2856500n_las.laz
20170224_2017_588500e_2849500n_las.laz
20170224_2017_588500e_2849000n_las.laz
20170224_2017_588500e_2848500n_las.laz
20170224_2017_588500e_2848000n_las.laz
20170224_2017_588500e_2847500n_las.laz
20170224_2017_588500e_2847000n_las.laz
20170224_2017_588000e_2861000n_las.laz
20170225_2017_585000e_2862500n_las.laz
20170225_2017_585000e_2849500n_las.laz
20170224_2017_588000e_2859000n_las.laz
20170224_2017_588000e_2850500n_las.laz
20170224_2017_588000e_2850000n_las.laz
20170301_2017_584500e_2848000n_las.laz
20170301_2017_584500e_2858000n_las.laz
20170224_2017_587500e_2856500n_las.laz
20170224_2017_588000e_2849500n_las.laz
20170224_2017_588000e_2858500n_las.laz
20170225_2017_585000e_2856000n_las.laz
20170224_2017_587500e_2856000n_las.laz
20170224_2017_588000e_2849000n_las.laz
20170225_2017_585000e_2849000n_las.laz
20170224_2017_588000e_2848500n_las.laz
20170224_2017_588000e_2848000n_las.laz
20170224_2017_588000e_2858000n_las.laz
20170224_2017_588000e_2847500n_las.laz
20170224_2017_588000e_2847000n_las.laz
20170224_2017_587500e_2863500n_las.laz
20170224_2017_587500e_2855500n_las.laz
20170224_2017_588000e_2857500n_las.laz
20170225_2017_585000e_2862000n_las.laz
20170225_2017_585000e_2855500n_las.laz
20170224_2017_587500e_2855000n_las.laz
20170224_2017_587500e_2863000n_las.laz
20170301_2017_584500e_2857500n_las.laz
20170301_2017_584500e_2847500n_las.laz
20170224_2017_588000e_2857000n_las.laz
20170225_2017_585000e_2848500n_las.laz
20170224_2017_587500e_2854500n_las.laz
20170301_2017_584000e_2849000n_las.laz
20170224_2017_588000e_2856500n_las.laz
20170225_2017_585000e_2848000n_las.laz
20170224_2017_587500e_2854000n_las.laz
20170224_2017_587500e_2862500n_las.laz
20170225_2017_585000e_2855000n_las.laz
20170224_2017_588000e_2856000n_las.laz
20170225_2017_585000e_2847500n_las.laz
20170224_2017_587500e_2853500n_las.laz
20170224_2017_587000e_2863500n_las.laz
20170301_2017_584000e_2848500n_las.laz
20170301_2017_584500e_2857000n_las.laz
20170224_2017_588000e_2855500n_las.laz
20170225_2017_585000e_2847000n_las.laz
20170224_2017_588500e_2861000n_las.laz
20170224_2017_588500e_2860500n_las.laz
20170224_2017_587500e_2853000n_las.laz
20170224_2017_588500e_2860000n_las.laz
20170224_2017_588500e_2859500n_las.laz
20170224_2017_588000e_2855000n_las.laz
20170224_2017_587000e_2863000n_las.laz
20170224_2017_588500e_2859000n_las.laz
20170301_2017_584000e_2848000n_las.laz
20170224_2017_587500e_2852500n_las.laz
20170224_2017_587500e_2861000n_las.laz
20170225_2017_585000e_2854500n_las.laz
20170224_2017_588500e_2858500n_las.laz
20170224_2017_588000e_2854500n_las.laz
20170224_2017_588500e_2858000n_las.laz
20170224_2017_588500e_2857500n_las.laz
20170224_2017_587500e_2852000n_las.laz
20170224_2017_587500e_2860500n_las.laz
20170224_2017_588500e_2857000n_las.laz
20170224_2017_588000e_2854000n_las.laz
20170224_2017_587000e_2862500n_las.laz
20170224_2017_587500e_2851500n_las.laz
20170224_2017_588500e_2856500n_las.laz
20170224_2017_587500e_2851000n_las.laz
20170301_2017_584500e_2856500n_las.laz
20170224_2017_587500e_2850500n_las.laz
20170224_2017_588000e_2853500n_las.laz
20170224_2017_587500e_2850000n_las.laz
20170224_2017_587000e_2853500n_las.laz
20170224_2017_587500e_2860000n_las.laz
20170224_2017_588000e_2853000n_las.laz
20170224_2017_587500e_2849500n_las.laz
20170224_2017_588000e_2852500n_las.laz
20170301_2017_584000e_2847500n_las.laz
20170224_2017_588000e_2852000n_las.laz
20170224_2017_588000e_2851500n_las.laz
20170224_2017_587500e_2849000n_las.laz
20170224_2017_587500e_2859500n_las.laz
20170224_2017_588000e_2851000n_las.laz
20170224_2017_587500e_2848500n_las.laz
20170225_2017_585000e_2854000n_las.laz
20170224_2017_587500e_2848000n_las.laz
20170223_2017_588500e_2876000n_las.laz
20170224_2017_587500e_2847500n_las.laz
20170224_2017_587500e_2847000n_las.laz
20170223_2017_588500e_2866000n_las.laz
20170224_2017_587000e_2853000n_las.laz
20170223_2017_588500e_2865500n_las.laz
20170223_2017_588500e_2865000n_las.laz
20170223_2017_588500e_2864500n_las.laz
20170223_2017_588500e_2864000n_las.laz
20170223_2017_588500e_2863500n_las.laz
20170224_2017_587500e_2859000n_las.laz
20170225_2017_586500e_2863500n_las.laz
20170223_2017_588500e_2863000n_las.laz
20170223_2017_588500e_2862500n_las.laz
20170224_2017_587000e_2862000n_las.laz
20170223_2017_588500e_2875500n_las.laz
20170223_2017_588500e_2862000n_las.laz
20170223_2017_588500e_2861500n_las.laz
20170223_2017_588000e_2877000n_las.laz
20170223_2017_588500e_2875000n_las.laz
20170223_2017_588500e_2874500n_las.laz
20170223_2017_588500e_2874000n_las.laz
20170301_2017_584500e_2856000n_las.laz
20170224_2017_587000e_2852500n_las.laz
20170224_2017_587500e_2858500n_las.laz
20170223_2017_588500e_2873500n_las.laz
20170223_2017_588500e_2873000n_las.laz
20170223_2017_588500e_2872500n_las.laz
20170223_2017_588500e_2872000n_las.laz
20170223_2017_588500e_2871500n_las.laz
20170223_2017_588500e_2871000n_las.laz
20170223_2017_588500e_2870500n_las.laz
20170223_2017_588500e_2870000n_las.laz
20170223_2017_588500e_2869500n_las.laz
20170223_2017_588500e_2869000n_las.laz
20170223_2017_588500e_2868500n_las.laz
20170223_2017_588500e_2868000n_las.laz
20170223_2017_588500e_2867500n_las.laz
20170223_2017_588500e_2867000n_las.laz
20170223_2017_588500e_2866500n_las.laz
20170223_2017_588000e_2872000n_las.laz
20170225_2017_586500e_2863000n_las.laz
20170223_2017_588000e_2876500n_las.laz
20170224_2017_587000e_2861500n_las.laz
20170224_2017_587500e_2858000n_las.laz
20170224_2017_587000e_2852000n_las.laz
20170225_2017_585000e_2853500n_las.laz
20170223_2017_588000e_2871500n_las.laz
20170224_2017_587500e_2857500n_las.laz
20170224_2017_587000e_2851500n_las.laz
20170223_2017_588000e_2876000n_las.laz
20170224_2017_587000e_2861000n_las.laz
20170223_2017_588000e_2871000n_las.laz
20170301_2017_584500e_2855500n_las.laz
20170225_2017_586500e_2862500n_las.laz
20170224_2017_587500e_2857000n_las.laz
20170224_2017_587000e_2851000n_las.laz
20170223_2017_588000e_2870500n_las.laz
20170224_2017_587000e_2860500n_las.laz
20170223_2017_588000e_2875500n_las.laz
20170224_2017_587000e_2850500n_las.laz
20170223_2017_588000e_2862000n_las.laz
20170223_2017_588000e_2870000n_las.laz
20170224_2017_587000e_2860000n_las.laz
20170225_2017_585000e_2853000n_las.laz
20170224_2017_587000e_2850000n_las.laz
20170223_2017_588000e_2869500n_las.laz
20170223_2017_588000e_2875000n_las.laz
20170301_2017_584500e_2855000n_las.laz
20170225_2017_586500e_2862000n_las.laz
20170224_2017_587000e_2859500n_las.laz
20170224_2017_587000e_2849500n_las.laz
20170223_2017_588000e_2861500n_las.laz
20170223_2017_588000e_2869000n_las.laz
20170224_2017_587000e_2849000n_las.laz
20170223_2017_588000e_2874500n_las.laz
20170224_2017_587000e_2859000n_las.laz
20170223_2017_588000e_2868500n_las.laz
20170224_2017_587000e_2848500n_las.laz
20170225_2017_585000e_2852500n_las.laz
20170224_2017_587000e_2848000n_las.laz
20170223_2017_588000e_2868000n_las.laz
20170224_2017_587000e_2847500n_las.laz
20170223_2017_587500e_2862000n_las.laz
20170223_2017_588000e_2874000n_las.laz
20170224_2017_587000e_2847000n_las.laz
20170224_2017_586500e_2856000n_las.laz
20170223_2017_588000e_2867500n_las.laz
20170224_2017_587000e_2858500n_las.laz
20170223_2017_588000e_2867000n_las.laz
20170223_2017_588000e_2873500n_las.laz
20170223_2017_588000e_2866500n_las.laz
20170301_2017_584500e_2854500n_las.laz
20170224_2017_586500e_2855500n_las.laz
20170223_2017_588000e_2866000n_las.laz
20170224_2017_587000e_2858000n_las.laz
20170223_2017_587500e_2861500n_las.laz
20170223_2017_588000e_2865500n_las.laz
20170223_2017_588000e_2873000n_las.laz
20170225_2017_585000e_2852000n_las.laz
20170223_2017_588000e_2865000n_las.laz
20170224_2017_587000e_2857500n_las.laz
20170223_2017_588000e_2864500n_las.laz
20170224_2017_586500e_2855000n_las.laz
20170223_2017_588000e_2872500n_las.laz
20170223_2017_588000e_2864000n_las.laz
20170223_2017_588000e_2863500n_las.laz
20170224_2017_586500e_2854500n_las.laz
20170224_2017_587000e_2857000n_las.laz
20170223_2017_588000e_2863000n_las.laz
20170301_2017_584500e_2854000n_las.laz
20170223_2017_588500e_2877000n_las.laz
20170223_2017_588000e_2862500n_las.laz
20170224_2017_587000e_2856500n_las.laz
20170223_2017_588500e_2876500n_las.laz
20170224_2017_587000e_2856000n_las.laz
20170224_2017_587000e_2855500n_las.laz
20170301_2017_584500e_2853500n_las.laz
20170224_2017_587000e_2855000n_las.laz
20170224_2017_587000e_2854500n_las.laz
20170224_2017_587000e_2854000n_las.laz

This page is owned by the NOAA Office for Coastal Management and was created by an automated script on Fri Sep 3 07:34:11 EDT 2021